Time;durP1;ratioP1;P1;durP2;ratioP2;P2;SDS_P1;SDS_P2;PMS_P1;PMS_P2;Temp;Humidity;BMP_temperature;BMP_pressure;BME280_temperature;BME280_humidity;BME280_pressure;Samples;Min_cycle;Max_cycle;Signal;HPM_P1;HPM_P2
2023/01/21 00:00:39;;;;;;;12.23;6.15;;;;;;;0.74;70.22;147511.59;5081691;28;20028;-66
2023/01/21 00:03:05;;;;;;;12.18;5.68;;;;;;;0.74;70.86;147510.28;5081669;28;20024;-66
2023/01/21 00:05:30;;;;;;;11.23;6.65;;;;;;;0.85;71.24;147539.53;5081339;28;20028;-66
2023/01/21 00:07:56;;;;;;;12.13;5.75;;;;;;;0.99;69.86;147573.91;5081353;28;20028;-66
2023/01/21 00:10:21;;;;;;;12.82;6.75;;;;;;;0.78;69.36;147521.72;5067725;28;20044;-65
2023/01/21 00:12:47;;;;;;;13.18;6.10;;;;;;;0.86;69.78;147542.09;5081590;28;20243;-66
2023/01/21 00:15:13;;;;;;;11.38;5.30;;;;;;;0.76;69.53;147516.66;5081396;28;20105;-66
2023/01/21 00:17:38;;;;;;;13.95;5.40;;;;;;;0.84;69.34;147535.72;5080885;28;20029;-67
2023/01/21 00:20:05;;;;;;;15.00;6.15;;;;;;;0.87;69.54;147543.41;5081392;28;20032;-66
2023/01/21 00:22:31;;;;;;;13.15;6.28;;;;;;;0.80;68.93;147525.59;5081391;28;20028;-67
2023/01/21 00:24:56;;;;;;;13.77;5.50;;;;;;;0.73;69.17;147509.03;5081519;28;20033;-67
2023/01/21 00:27:22;;;;;;;11.90;5.63;;;;;;;0.75;69.37;147514.09;5081986;28;20343;-66
2023/01/21 00:29:48;;;;;;;13.95;5.55;;;;;;;0.76;69.63;147515.41;5084735;28;20197;-67
2023/01/21 00:32:13;;;;;;;12.68;5.60;;;;;;;0.61;69.08;147479.75;5076043;28;20202;-67
2023/01/21 00:34:39;;;;;;;19.70;6.25;;;;;;;0.40;69.06;147426.34;5085048;28;20320;-66
2023/01/21 00:37:06;;;;;;;12.88;5.40;;;;;;;0.61;69.19;147479.75;5084910;28;20020;-66
2023/01/21 00:39:32;;;;;;;9.93;5.75;;;;;;;0.51;69.04;147454.31;5084794;28;20107;-66
2023/01/21 00:41:58;;;;;;;14.00;6.03;;;;;;;0.41;69.57;147430.16;5084636;28;20365;-66
2023/01/21 00:44:23;;;;;;;11.68;6.45;;;;;;;0.40;69.18;147427.63;5084658;28;20044;-67
2023/01/21 00:46:49;;;;;;;12.45;5.60;;;;;;;0.32;70.20;147408.53;5084561;28;20070;-66
2023/01/21 00:49:15;;;;;;;13.10;5.82;;;;;;;0.49;69.47;147450.50;5084497;28;20048;-66
2023/01/21 00:51:40;;;;;;;14.07;5.53;;;;;;;0.58;69.58;147472.13;5084135;28;20296;-66
2023/01/21 00:54:06;;;;;;;12.93;5.70;;;;;;;0.50;69.09;147451.81;5084416;28;20066;-65
2023/01/21 00:56:31;;;;;;;13.05;5.68;;;;;;;0.57;70.26;147468.31;5084376;28;20029;-66
2023/01/21 00:58:57;;;;;;;12.60;5.40;;;;;;;0.49;68.59;147450.50;5084560;28;20044;-65
2023/01/21 01:01:25;;;;;;;11.80;5.53;;;;;;;0.30;68.91;147402.16;5084251;28;20078;-66
2023/01/21 01:03:51;;;;;;;13.55;5.82;;;;;;;0.57;68.96;147469.63;5084603;28;20068;-67
2023/01/21 01:06:21;;;;;;;9.75;5.47;;;;;;;0.55;68.08;147463.25;5082588;28;20025;-65
2023/01/21 01:08:51;;;;;;;9.52;5.05;;;;;;;0.37;68.42;147420.00;5066387;28;20031;-66
2023/01/21 01:11:17;;;;;;;11.52;5.60;;;;;;;0.23;67.96;147385.66;5054563;28;20028;-66
2023/01/21 01:13:43;;;;;;;11.90;5.05;;;;;;;0.45;69.05;147439.06;5071004;28;20032;-67
2023/01/21 01:16:11;;;;;;;10.07;5.15;;;;;;;0.44;68.11;147436.50;5083943;28;20028;-67
2023/01/21 01:18:37;;;;;;;11.93;5.53;;;;;;;0.42;68.40;147432.69;5084034;28;20040;-66
2023/01/21 01:21:04;;;;;;;9.45;5.43;;;;;;;0.38;67.85;147421.25;5083889;28;20071;-66
2023/01/21 01:23:30;;;;;;;12.93;5.75;;;;;;;0.35;68.17;147414.91;5083929;28;20082;-66
2023/01/21 01:25:58;;;;;;;12.65;5.50;;;;;;;0.33;67.91;147409.84;5082766;28;20357;-67
2023/01/21 01:28:23;;;;;;;11.43;5.22;;;;;;;0.27;67.86;147394.53;5083683;28;20203;-66
2023/01/21 01:30:49;;;;;;;14.68;5.93;;;;;;;0.41;67.90;147430.16;5080058;28;20033;-66
2023/01/21 01:33:14;;;;;;;16.88;5.18;;;;;;;0.30;67.45;147402.16;5083101;28;20028;-67
2023/01/21 01:35:40;;;;;;;13.18;5.35;;;;;;;0.12;67.97;147357.69;5083832;28;20240;-67
2023/01/21 01:38:08;;;;;;;13.75;5.93;;;;;;;0.11;67.36;147356.38;5083461;28;20040;-67
2023/01/21 01:40:34;;;;;;;12.07;5.50;;;;;;;0.33;68.36;147409.84;5082548;28;20036;-66
2023/01/21 01:43:00;;;;;;;10.52;5.03;;;;;;;0.23;68.04;147385.66;5083346;28;20378;-68
2023/01/21 01:45:26;;;;;;;12.65;5.30;;;;;;;0.22;67.26;147381.84;5083557;28;20040;-66
2023/01/21 01:47:59;;;;;;;9.48;5.15;;;;;;;0.40;67.82;147427.63;5065645;28;20036;-65
2023/01/21 01:50:30;;;;;;;9.70;4.90;;;;;;;0.34;67.69;147413.66;5083159;28;20461;-67
2023/01/21 01:52:59;;;;;;;12.15;5.47;;;;;;;0.26;67.45;147392.03;5083433;28;20028;-67
2023/01/21 01:55:27;;;;;;;15.07;6.15;;;;;;;0.45;67.37;147439.06;5083214;28;20034;-66
2023/01/21 01:57:55;;;;;;;11.75;4.85;;;;;;;0.45;67.48;147439.06;5083099;28;20051;-67
2023/01/21 02:00:22;;;;;;;10.48;5.18;;;;;;;0.25;66.79;147389.47;5082908;28;20074;-67
2023/01/21 02:03:43;;;;;;;13.30;4.82;;;;;;;0.37;66.35;147420.00;5082618;28;20244;-66
2023/01/21 02:05:36;;;;;;;7.90;4.65;;;;;;;0.51;66.90;147455.63;5082574;28;20103;-68
2023/01/21 02:08:02;;;;;;;9.88;4.88;;;;;;;0.61;67.23;147478.50;5082801;28;20032;-66
2023/01/21 02:10:28;;;;;;;14.63;5.45;;;;;;;0.56;67.34;147465.81;5068024;28;20031;-66
2023/01/21 02:12:54;;;;;;;10.85;5.07;;;;;;;0.51;66.04;147454.31;5081746;28;20050;-65
2023/01/21 02:15:24;;;;;;;15.98;5.13;;;;;;;0.43;65.84;147435.25;5082276;28;20336;-66
2023/01/21 02:18:23;;;;;;;9.40;4.88;;;;;;;0.51;65.97;147454.31;5082665;28;20055;-66
2023/01/21 02:20:58;;;;;;;13.02;5.22;;;;;;;0.37;65.56;147418.72;5065008;28;20054;-67
2023/01/21 02:23:53;;;;;;;11.13;5.78;;;;;;;0.26;65.80;147393.28;5082480;28;20205;-65
2023/01/21 02:26:37;;;;;;;11.07;5.05;;;;;;;0.30;67.20;147402.16;5082522;28;20031;-65
2023/01/21 02:29:18;;;;;;;10.05;4.82;;;;;;;0.54;66.90;147460.69;5082540;28;20032;-65
2023/01/21 02:32:12;;;;;;;10.68;5.38;;;;;;;0.52;65.98;147458.13;5072380;28;20041;-66
2023/01/21 02:34:52;;;;;;;10.80;5.07;;;;;;;0.54;65.07;147461.94;5082475;28;20094;-66
2023/01/21 02:37:35;;;;;;;10.02;4.75;;;;;;;0.30;64.69;147403.47;5064589;28;20033;-65
2023/01/21 02:40:14;;;;;;;13.93;5.05;;;;;;;0.24;65.16;147386.91;5064603;28;20032;-65
2023/01/21 02:42:46;;;;;;;13.65;5.07;;;;;;;0.15;65.08;147366.56;5081544;28;20368;-66
2023/01/21 02:45:17;;;;;;;;;;;;;;;0.30;65.47;147402.16;5081898;28;20045;-66
2023/01/21 02:47:54;;;;;;;7.33;4.43;;;;;;;0.11;65.12;147356.38;5063673;28;20011;-65
2023/01/21 02:50:27;;;;;;;10.63;5.20;;;;;;;0.15;64.98;147365.31;5081480;28;20512;-66
2023/01/21 02:52:58;;;;;;;11.18;5.00;;;;;;;0.23;65.41;147384.38;5074636;28;20070;-67
2023/01/21 02:55:28;;;;;;;12.07;4.90;;;;;;;0.15;64.98;147366.56;5047536;28;20154;-67
2023/01/21 02:58:00;;;;;;;12.88;5.28;;;;;;;-0.01;66.69;147327.16;5082461;28;20304;-67
2023/01/21 03:00:30;;;;;;;20.35;5.75;;;;;;;0.08;64.72;147347.50;5062340;28;20032;-66
2023/01/21 03:03:22;;;;;;;12.05;5.60;;;;;;;0.00;64.92;147328.47;5060291;28;20067;-65
2023/01/21 03:06:03;;;;;;;16.60;5.30;;;;;;;0.08;64.91;147348.75;5082084;28;20095;-65
2023/01/21 03:08:41;;;;;;;12.83;5.47;;;;;;;-0.16;65.59;147289.00;5073801;28;20067;-66
2023/01/21 03:11:17;;;;;;;9.95;4.82;;;;;;;-0.03;64.58;147322.09;5071446;28;20716;-65
2023/01/21 03:16:57;;;;;;;13.88;5.20;;;;;;;-0.20;65.15;147280.13;5082011;28;20035;-65
2023/01/21 03:19:49;;;;;;;10.95;5.90;;;;;;;-0.12;64.50;147299.19;5081762;28;20034;-65
2023/01/21 03:22:21;;;;;;;10.88;4.53;;;;;;;-0.47;64.57;147211.47;5080861;28;20049;-65
2023/01/21 03:24:50;;;;;;;11.32;4.82;;;;;;;-0.40;65.54;147230.56;5081458;28;20331;-65
2023/01/21 03:27:18;;;;;;;15.88;4.95;;;;;;;-0.31;65.07;147250.88;5081327;28;20029;-64
2023/01/21 03:29:46;;;;;;;12.43;5.07;;;;;;;-0.39;64.87;147233.09;5081372;28;20286;-66
2023/01/21 03:32:15;;;;;;;15.50;5.32;;;;;;;-0.27;65.10;147261.03;5081283;28;20099;-64
2023/01/21 03:34:44;;;;;;;14.80;4.97;;;;;;;-0.23;64.21;147272.53;5081649;28;20233;-64
2023/01/21 03:37:21;;;;;;;9.27;4.63;;;;;;;-0.24;64.95;147269.97;5081892;28;20070;-66
2023/01/21 03:39:56;;;;;;;8.05;4.30;;;;;;;-0.14;64.44;147294.13;5081177;28;20040;-65
2023/01/21 03:42:21;;;;;;;10.98;4.03;;;;;;;-0.24;63.32;147269.97;5081614;28;20036;-65
2023/01/21 03:44:47;;;;;;;10.23;4.32;;;;;;;-0.36;64.17;147239.44;5081810;28;20269;-66
2023/01/21 03:47:30;;;;;;;12.25;4.28;;;;;;;-0.29;65.75;147257.25;5081637;28;20100;-66
2023/01/21 03:50:19;;;;;;;11.18;4.18;;;;;;;-0.39;64.06;147233.09;5063836;28;20285;-65
2023/01/21 03:52:45;;;;;;;14.05;4.15;;;;;;;-0.44;64.19;147219.09;5081754;28;20036;-67
2023/01/21 03:55:12;;;;;;;14.40;4.45;;;;;;;-0.32;64.36;147249.63;5081876;28;20035;-65
2023/01/21 03:57:38;;;;;;;7.85;4.40;;;;;;;-0.25;64.42;147266.16;5081488;28;20036;-67
2023/01/21 04:00:06;;;;;;;10.27;4.07;;;;;;;-0.48;63.53;147208.97;5081426;28;20055;-64
2023/01/21 04:02:31;;;;;;;12.05;4.10;;;;;;;-0.43;64.37;147222.97;5083091;28;20233;-65
2023/01/21 04:04:57;;;;;;;8.80;3.92;;;;;;;-0.58;64.37;147186.09;5085431;28;20024;-66
2023/01/21 04:07:23;;;;;;;9.80;4.22;;;;;;;-0.54;64.67;147196.25;5085159;28;20094;-67
2023/01/21 04:09:49;;;;;;;9.68;3.80;;;;;;;-0.39;65.09;147233.09;5071838;28;20029;-65
2023/01/21 04:12:15;;;;;;;11.57;4.25;;;;;;;-0.32;64.39;147249.63;5083074;28;20036;-65
2023/01/21 04:14:41;;;;;;;10.07;4.13;;;;;;;-0.31;64.40;147250.88;5085225;28;20040;-66
2023/01/21 04:17:07;;;;;;;10.48;4.80;;;;;;;-0.26;64.24;147264.84;5085133;28;20036;-66
2023/01/21 04:19:32;;;;;;;15.75;4.50;;;;;;;-0.35;64.75;147243.25;5084721;28;20035;-67
2023/01/21 04:21:58;;;;;;;9.93;3.97;;;;;;;-0.68;63.65;147160.69;5085151;28;20024;-66
2023/01/21 04:24:24;;;;;;;8.18;4.03;;;;;;;-0.59;64.27;147183.53;5084704;28;20028;-67
2023/01/21 04:26:50;;;;;;;9.52;3.58;;;;;;;-0.71;63.62;147154.31;5080551;28;20028;-66
2023/01/21 04:29:16;;;;;;;9.45;3.70;;;;;;;-0.81;64.34;147127.63;5064821;28;20195;-66
2023/01/21 04:31:42;;;;;;;12.60;4.00;;;;;;;-0.78;63.57;147136.53;5080425;28;20036;-66
2023/01/21 04:34:07;;;;;;;12.38;3.70;;;;;;;-0.81;63.64;147128.91;5066946;28;20326;-65
2023/01/21 04:36:33;;;;;;;9.63;4.00;;;;;;;-0.92;63.53;147102.22;5084779;28;20234;-65
2023/01/21 04:38:59;;;;;;;11.45;3.90;;;;;;;-0.65;64.88;147167.03;5084728;28;20036;-65
2023/01/21 04:41:24;;;;;;;14.45;4.32;;;;;;;-0.93;63.51;147099.66;5084216;28;20025;-65
2023/01/21 04:43:50;;;;;;;8.88;3.83;;;;;;;-0.79;63.49;147133.97;5084543;28;20032;-65
2023/01/21 04:46:15;;;;;;;6.95;3.72;;;;;;;-0.89;63.79;147109.84;5084426;28;20052;-64
2023/01/21 04:48:41;;;;;;;8.63;3.83;;;;;;;-0.84;65.04;147120.00;5083943;28;20032;-64
2023/01/21 04:51:06;;;;;;;7.07;3.67;;;;;;;-0.89;65.00;147108.56;5083069;28;20020;-64
2023/01/21 04:53:32;;;;;;;11.35;4.10;;;;;;;-0.74;63.82;147145.41;5084415;28;20024;-64
2023/01/21 04:55:58;;;;;;;8.68;3.55;;;;;;;-0.71;65.20;147154.31;5084319;28;20036;-65
2023/01/21 04:58:25;;;;;;;8.93;3.40;;;;;;;-1.12;63.67;147052.69;5084434;28;20021;-64
2023/01/21 05:00:53;;;;;;;9.32;3.42;;;;;;;-1.01;64.81;147079.38;5066506;28;20039;-64
2023/01/21 05:03:18;;;;;;;9.55;3.83;;;;;;;-0.84;65.64;147120.00;5084294;28;20032;-64
2023/01/21 05:05:44;;;;;;;9.10;4.03;;;;;;;-0.99;64.40;147083.19;5084184;28;20496;-62
2023/01/21 05:08:09;;;;;;;8.50;3.58;;;;;;;-1.04;64.20;147071.75;5083801;28;20192;-64
2023/01/21 05:10:35;;;;;;;10.63;4.00;;;;;;;-0.88;63.95;147112.38;5067521;28;20058;-65
2023/01/21 05:13:01;;;;;;;8.63;3.95;;;;;;;-0.83;64.18;147123.81;5084151;28;20020;-65
2023/01/21 05:15:26;;;;;;;8.13;3.35;;;;;;;-0.92;64.95;147102.22;5064786;28;20028;-66
2023/01/21 05:17:52;;;;;;;8.98;3.47;;;;;;;-0.84;64.82;147120.00;5083940;28;20027;-66
2023/01/21 05:20:17;;;;;;;12.75;4.35;;;;;;;-0.75;65.18;147142.91;5082729;28;20060;-65
2023/01/21 05:22:46;;;;;;;9.07;3.63;;;;;;;-1.22;64.54;147028.56;5084006;28;20031;-65
2023/01/21 05:25:13;;;;;;;5.10;3.13;;;;;;;-1.18;65.23;147036.16;5083617;28;20243;-64
2023/01/21 05:27:39;;;;;;;7.60;3.85;;;;;;;-1.05;65.40;147069.22;5083359;28;20074;-66
2023/01/21 05:30:05;;;;;;;6.97;3.17;;;;;;;-1.19;65.63;147034.91;5083296;28;20017;-66
2023/01/21 05:32:30;;;;;;;11.25;4.13;;;;;;;-1.06;65.15;147066.66;5048947;28;20039;-66
2023/01/21 05:34:56;;;;;;;8.73;3.95;;;;;;;-1.14;64.97;147047.63;5083590;28;20028;-65
2023/01/21 05:37:22;;;;;;;10.00;4.07;;;;;;;-0.97;65.63;147088.25;5083414;28;20286;-65
2023/01/21 05:39:47;;;;;;;7.72;3.63;;;;;;;-1.29;65.85;147010.78;5083700;28;20020;-66
2023/01/21 05:42:13;;;;;;;10.45;3.85;;;;;;;-1.37;65.41;146989.19;5083230;28;20028;-65
2023/01/21 05:44:38;;;;;;;7.65;3.55;;;;;;;-1.23;65.80;147024.75;5072450;28;20106;-67
2023/01/21 05:47:04;;;;;;;8.95;3.55;;;;;;;-1.40;65.54;146984.13;5070576;28;20040;-66
2023/01/21 05:49:29;;;;;;;6.97;3.55;;;;;;;-1.20;66.03;147031.09;5083153;28;20032;-66
2023/01/21 05:51:55;;;;;;;13.77;3.80;;;;;;;-1.24;65.89;147023.50;5083336;28;20043;-67
2023/01/21 05:54:20;;;;;;;8.32;3.72;;;;;;;-1.12;65.47;147051.44;5083145;28;20032;-67
2023/01/21 05:56:46;;;;;;;9.90;3.80;;;;;;;-1.48;66.42;146962.50;5065148;28;20058;-65
2023/01/21 05:59:11;;;;;;;7.88;3.95;;;;;;;-1.34;67.01;146998.09;5083182;28;20108;-66
2023/01/21 06:01:37;;;;;;;9.05;3.70;;;;;;;-1.11;66.01;147053.94;5082899;28;20056;-67
2023/01/21 06:04:03;;;;;;;14.32;4.25;;;;;;;-1.12;65.96;147051.44;5082933;28;20025;-66
2023/01/21 06:06:28;;;;;;;10.07;3.70;;;;;;;-1.08;65.88;147061.59;5065022;28;20035;-65
2023/01/21 06:08:54;;;;;;;10.77;3.60;;;;;;;-1.25;65.42;147020.94;5076781;28;20224;-66
2023/01/21 06:11:19;;;;;;;9.60;4.03;;;;;;;-1.46;66.18;146967.59;5071101;28;20126;-66
2023/01/21 06:13:45;;;;;;;10.45;4.18;;;;;;;-1.34;66.72;146996.81;5078414;28;20070;-68
2023/01/21 06:16:10;;;;;;;7.32;4.18;;;;;;;-1.31;66.42;147004.41;5064599;28;20063;-66
2023/01/21 06:18:36;;;;;;;18.48;4.55;;;;;;;-1.29;66.00;147010.78;5064464;28;20402;-66
2023/01/21 06:21:02;;;;;;;8.98;3.95;;;;;;;-1.30;66.56;147008.22;5082725;28;20016;-66
2023/01/21 06:23:27;;;;;;;9.05;4.03;;;;;;;-1.30;65.88;147008.22;5082313;28;20074;-67
2023/01/21 06:25:58;;;;;;;8.48;3.45;;;;;;;-1.40;67.22;146984.13;5082478;28;20024;-67
2023/01/21 06:28:24;;;;;;;8.55;4.05;;;;;;;-1.31;66.30;147005.72;5082639;28;20074;-67
2023/01/21 06:30:49;;;;;;;8.65;3.85;;;;;;;-1.34;65.51;146998.09;5076912;28;20021;-67
2023/01/21 06:33:15;;;;;;;8.45;4.10;;;;;;;-1.36;65.88;146993.00;5078896;28;20103;-65
2023/01/21 06:35:40;;;;;;;9.18;3.35;;;;;;;-1.30;65.78;147006.97;5082113;28;20031;-66
2023/01/21 06:38:06;;;;;;;8.65;3.85;;;;;;;-1.21;65.82;147029.84;5082017;28;20050;-66
2023/01/21 06:40:31;;;;;;;9.27;3.85;;;;;;;-1.09;66.04;147059.03;5077626;28;20083;-65
2023/01/21 06:42:57;;;;;;;7.20;3.90;;;;;;;-1.30;65.58;147008.22;5071950;28;20091;-65
2023/01/21 06:45:22;;;;;;;9.45;4.47;;;;;;;-0.99;65.95;147084.44;5072622;28;20236;-65
2023/01/21 06:47:48;;;;;;;9.43;3.95;;;;;;;-1.35;65.56;146994.25;5055669;28;20221;-65
2023/01/21 06:50:16;;;;;;;7.05;3.78;;;;;;;-1.59;66.13;146935.88;5074984;28;20040;-65
2023/01/21 06:52:44;;;;;;;9.98;4.15;;;;;;;-1.64;66.55;146924.47;5082093;28;20056;-65
2023/01/21 06:55:10;;;;;;;10.07;4.45;;;;;;;-1.41;66.74;146980.28;5082466;28;20031;-65
2023/01/21 06:57:37;;;;;;;6.15;3.75;;;;;;;-1.69;65.84;146911.75;5082198;28;20085;-65
2023/01/21 07:00:04;;;;;;;7.75;3.92;;;;;;;-1.33;66.31;146999.34;5064446;28;20034;-64
2023/01/21 07:02:30;;;;;;;7.00;3.60;;;;;;;-1.49;65.18;146961.25;5080653;28;20028;-65
2023/01/21 07:04:55;;;;;;;8.15;3.58;;;;;;;-1.54;66.14;146948.53;5082421;28;20110;-66
2023/01/21 07:07:21;;;;;;;9.63;4.35;;;;;;;-1.54;65.43;146947.28;5063651;28;20024;-66
2023/01/21 07:09:47;;;;;;;10.63;4.50;;;;;;;-1.41;65.63;146980.28;5068499;28;20071;-66
2023/01/21 07:12:12;;;;;;;9.93;3.88;;;;;;;-1.87;66.78;146866.03;5077811;28;20031;-66
2023/01/21 07:14:38;;;;;;;10.18;4.13;;;;;;;-1.63;66.63;146925.72;5081793;28;20028;-66
2023/01/21 07:17:04;;;;;;;7.53;3.92;;;;;;;-1.47;65.80;146966.34;5079036;28;20332;-65
2023/01/21 07:19:29;;;;;;;5.90;3.58;;;;;;;-1.56;65.23;146943.47;5081747;28;20036;-67
2023/01/21 07:21:55;;;;;;;7.50;3.60;;;;;;;-1.58;66.40;146938.44;5081676;28;20029;-67
2023/01/21 07:24:20;;;;;;;11.77;3.83;;;;;;;-1.26;66.72;147017.13;5063765;28;20048;-66
2023/01/21 07:26:47;;;;;;;9.65;4.13;;;;;;;-1.32;65.30;147001.91;5077573;28;20037;-67
2023/01/21 07:29:13;;;;;;;7.68;4.07;;;;;;;-1.31;63.90;147004.41;5072756;28;20075;-67
2023/01/21 07:31:39;;;;;;;9.55;4.05;;;;;;;-1.45;65.03;146971.41;5073247;28;20044;-67
2023/01/21 07:34:04;;;;;;;9.70;4.18;;;;;;;-1.28;64.72;147013.31;5071938;28;20028;-68
2023/01/21 07:36:30;;;;;;;6.43;3.85;;;;;;;-1.26;64.69;147017.13;5072262;28;20055;-68
2023/01/21 07:38:55;;;;;;;9.02;4.43;;;;;;;-1.48;64.35;146962.50;5076029;28;20104;-69
2023/01/21 07:41:21;;;;;;;9.55;4.63;;;;;;;-1.62;64.21;146929.50;5072662;28;20409;-69
2023/01/21 07:43:47;;;;;;;8.32;4.05;;;;;;;-1.29;65.34;147009.53;5083057;28;20032;-68
2023/01/21 07:46:20;;;;;;;7.18;4.18;;;;;;;-1.27;64.74;147014.56;5055430;28;20041;-68
2023/01/21 07:48:50;;;;;;;7.47;4.10;;;;;;;-1.33;64.13;147000.59;5065553;28;20061;-70
2023/01/21 07:51:18;;;;;;;7.43;4.00;;;;;;;-1.02;65.50;147075.56;5081041;28;20032;-67
2023/01/21 07:53:43;;;;;;;8.55;4.20;;;;;;;-1.43;64.32;146976.47;5085689;28;20235;-68
2023/01/21 07:56:09;;;;;;;11.15;4.47;;;;;;;-1.13;64.92;147050.13;5085200;28;20027;-68
2023/01/21 07:58:35;;;;;;;10.20;4.40;;;;;;;-1.29;63.44;147010.78;5066790;28;20240;-67
2023/01/21 08:01:08;;;;;;;9.57;4.38;;;;;;;-1.25;65.01;147020.94;5079303;28;20017;-67
2023/01/21 08:03:37;;;;;;;8.00;4.43;;;;;;;-1.02;65.16;147075.56;5073973;28;20033;-68
2023/01/21 08:06:04;;;;;;;7.15;4.40;;;;;;;-0.93;64.48;147099.66;5073797;28;20348;-69
2023/01/21 08:08:30;;;;;;;7.45;3.90;;;;;;;-1.23;63.56;147024.75;5074783;28;20093;-69
2023/01/21 08:10:55;;;;;;;11.18;4.40;;;;;;;-1.46;63.79;146967.59;5075922;28;20301;-67
2023/01/21 08:13:22;;;;;;;10.10;4.38;;;;;;;-1.00;64.31;147081.88;5052959;28;20158;-67
2023/01/21 08:15:52;;;;;;;10.13;3.97;;;;;;;-1.37;63.37;146990.44;5075690;28;20077;-67
2023/01/21 08:18:20;;;;;;;8.98;4.30;;;;;;;-1.23;64.51;147026.03;5077526;28;20052;-67
2023/01/21 08:20:46;;;;;;;15.52;4.78;;;;;;;-1.32;64.09;147003.16;5058193;28;20082;-67
2023/01/21 08:23:12;;;;;;;7.45;4.47;;;;;;;-1.39;63.83;146986.63;5057440;28;20457;-68
2023/01/21 08:25:37;;;;;;;7.20;4.45;;;;;;;-1.14;64.16;147046.31;5076576;28;20070;-67
2023/01/21 08:28:03;;;;;;;6.93;4.28;;;;;;;-1.30;63.90;147008.22;5076548;28;20028;-69
2023/01/21 08:30:29;;;;;;;6.40;3.95;;;;;;;-1.33;62.30;147000.59;5078554;28;20091;-68
2023/01/21 08:32:55;;;;;;;8.73;4.32;;;;;;;-1.13;63.73;147050.13;5058702;28;20024;-69
2023/01/21 08:35:20;;;;;;;8.18;4.25;;;;;;;-1.14;62.85;147046.31;5075895;28;20028;-68
2023/01/21 08:37:46;;;;;;;11.05;4.22;;;;;;;-1.00;62.83;147081.88;5075590;28;20328;-67
2023/01/21 08:40:11;;;;;;;7.28;4.00;;;;;;;-1.16;62.51;147041.28;5080449;28;20024;-67
2023/01/21 08:42:38;;;;;;;9.23;4.32;;;;;;;-1.27;63.53;147015.88;5080019;28;20075;-69
2023/01/21 08:45:04;;;;;;;8.88;4.38;;;;;;;-0.98;63.14;147087.00;5076824;28;20040;-67
2023/01/21 08:47:30;;;;;;;7.85;4.47;;;;;;;-0.96;63.48;147090.78;5076340;28;20044;-71
2023/01/21 08:49:56;;;;;;;9.50;4.35;;;;;;;-0.83;62.42;147123.81;5075160;28;20037;-69
2023/01/21 08:52:21;;;;;;;6.40;3.78;;;;;;;-0.91;62.94;147104.78;5073876;28;20252;-68
2023/01/21 08:54:47;;;;;;;8.93;4.50;;;;;;;-1.05;61.96;147069.22;5060540;28;20050;-67
2023/01/21 08:57:12;;;;;;;10.57;4.18;;;;;;;-1.12;61.73;147052.69;5075347;28;20051;-66
2023/01/21 08:59:38;;;;;;;8.23;4.47;;;;;;;-1.20;62.72;147031.09;5075903;28;20037;-67
2023/01/21 09:02:07;;;;;;;10.10;4.30;;;;;;;-1.16;62.34;147041.28;5075934;28;20028;-66
2023/01/21 09:04:33;;;;;;;9.32;4.57;;;;;;;-0.93;61.71;147099.66;5073460;28;20052;-67
2023/01/21 09:06:58;;;;;;;9.60;4.13;;;;;;;-0.93;63.21;147099.66;5076021;28;20084;-67
2023/01/21 09:09:24;;;;;;;8.50;3.67;;;;;;;-1.19;61.23;147033.66;5074910;28;20363;-67
2023/01/21 09:11:51;;;;;;;8.93;4.10;;;;;;;-1.37;62.21;146989.19;5062188;28;20029;-66
2023/01/21 09:14:17;;;;;;;8.68;4.63;;;;;;;-1.58;63.39;146938.44;5054527;28;20040;-65
2023/01/21 09:16:42;;;;;;;10.13;3.80;;;;;;;-1.40;62.92;146984.13;5082259;28;20341;-66
2023/01/21 09:19:08;;;;;;;7.90;3.67;;;;;;;-1.54;63.09;146947.28;5083795;28;20024;-68
2023/01/21 09:21:34;;;;;;;7.07;3.90;;;;;;;-1.36;63.55;146993.00;5080463;28;20028;-67
2023/01/21 09:23:59;;;;;;;7.82;4.53;;;;;;;-1.46;62.78;146968.88;5079117;28;20059;-67
2023/01/21 09:26:25;;;;;;;6.65;3.70;;;;;;;-1.36;62.54;146993.00;5081268;28;20056;-65
2023/01/21 09:28:53;;;;;;;19.63;8.82;;;;;;;-1.28;63.47;147012.06;5067093;28;20028;-67
2023/01/21 09:31:24;;;;;;;6.72;3.90;;;;;;;-1.72;63.12;146904.13;5083213;28;20024;-66
2023/01/21 09:33:52;;;;;;;8.75;4.30;;;;;;;-1.25;64.45;147019.69;5083634;28;20023;-66
2023/01/21 09:36:20;;;;;;;6.53;3.65;;;;;;;-1.42;62.74;146977.78;5083482;28;20066;-66
2023/01/21 09:38:47;;;;;;;9.75;3.92;;;;;;;-1.33;62.93;147000.59;5072282;28;20101;-66
2023/01/21 09:41:44;;;;;;;6.57;3.85;;;;;;;-1.12;62.27;147052.69;5052172;28;20020;-67
2023/01/21 09:44:22;;;;;;;7.82;4.00;;;;;;;-1.60;63.15;146933.31;5083449;28;20049;-65
2023/01/21 09:47:07;;;;;;;7.38;3.58;;;;;;;-1.74;63.26;146899.03;5079918;28;20045;-65
2023/01/21 09:49:36;;;;;;;7.93;4.15;;;;;;;-1.61;63.27;146930.75;5070744;28;20029;-66
2023/01/21 09:52:31;;;;;;;5.82;3.28;;;;;;;-1.88;63.10;146863.50;5049434;28;20078;-68
2023/01/21 09:54:57;;;;;;;9.90;4.32;;;;;;;-1.48;63.04;146963.81;5057822;28;20335;-66
2023/01/21 09:57:57;;;;;;;6.88;4.43;;;;;;;-1.39;63.57;146986.63;5078873;28;20028;-67
2023/01/21 10:00:34;;;;;;;6.18;3.72;;;;;;;-1.22;62.02;147028.56;5062897;28;20020;-66
2023/01/21 10:03:05;;;;;;;7.20;4.00;;;;;;;-1.18;62.42;147036.16;5075688;28;20032;-67
2023/01/21 10:06:02;;;;;;;6.57;3.95;;;;;;;-1.12;62.86;147051.44;5080272;28;20303;-66
2023/01/21 10:08:36;;;;;;;7.50;4.20;;;;;;;-1.00;61.41;147080.63;5068432;28;20040;-65
2023/01/21 10:11:35;;;;;;;5.18;3.28;;;;;;;-1.30;62.25;147008.22;5067243;28;20047;-66
2023/01/21 10:14:10;;;;;;;7.28;3.78;;;;;;;-1.09;61.33;147060.28;5082763;28;20028;-66
2023/01/21 10:16:57;;;;;;;8.43;4.55;;;;;;;-1.03;60.79;147074.28;5080727;28;20317;-65
2023/01/21 10:19:39;;;;;;;8.70;4.40;;;;;;;-0.90;59.72;147107.31;5069187;28;20086;-66
2023/01/21 10:22:25;;;;;;;5.45;4.00;;;;;;;-1.11;61.81;147053.94;5058930;28;20096;-67
2023/01/21 10:24:56;;;;;;;7.45;3.85;;;;;;;-1.46;61.40;146967.59;5082084;28;20053;-66
2023/01/21 10:27:24;;;;;;;5.80;3.53;;;;;;;-1.30;62.32;147008.22;5083477;28;20093;-65
2023/01/21 10:29:56;;;;;;;6.45;3.70;;;;;;;-1.29;62.33;147009.53;5090632;28;20036;-66
2023/01/21 10:32:26;;;;;;;11.68;4.07;;;;;;;-1.41;62.74;146981.56;5078456;28;20048;-66
2023/01/21 10:34:53;;;;;;;5.85;3.50;;;;;;;-1.57;62.26;146942.22;5082254;28;20048;-66
2023/01/21 10:37:47;;;;;;;8.02;4.50;;;;;;;-1.33;62.91;147000.59;5080227;28;20084;-67
2023/01/21 10:40:41;;;;;;;7.40;4.00;;;;;;;-1.44;61.80;146972.66;5082463;28;20091;-66
2023/01/21 10:43:17;;;;;;;8.57;4.13;;;;;;;-1.53;61.61;146951.09;5071890;28;20074;-67
2023/01/21 10:45:50;;;;;;;7.07;3.65;;;;;;;-1.47;61.75;146965.06;5079762;28;20048;-68
2023/01/21 10:48:23;;;;;;;6.47;3.47;;;;;;;-1.40;61.16;146982.84;5082207;28;20082;-67
2023/01/21 10:50:57;;;;;;;6.28;3.80;;;;;;;-1.30;61.15;147006.97;5060925;28;20416;-67
2023/01/21 10:53:36;;;;;;;5.65;3.67;;;;;;;-1.47;62.28;146966.34;5060040;28;20093;-65
2023/01/21 10:56:33;;;;;;;7.38;3.88;;;;;;;-1.28;61.35;147013.31;5071714;28;20101;-66
2023/01/21 10:59:15;;;;;;;6.43;3.47;;;;;;;-1.54;61.43;146948.53;5074139;28;20465;-67
2023/01/21 11:01:48;;;;;;;8.40;4.00;;;;;;;-1.22;61.98;147027.28;5073949;28;20021;-66
2023/01/21 11:04:26;;;;;;;7.00;3.70;;;;;;;-1.25;61.72;147019.69;5070096;28;20473;-67
2023/01/21 11:07:01;;;;;;;9.02;4.18;;;;;;;-1.32;62.07;147001.91;5071738;28;20050;-67
2023/01/21 11:09:31;;;;;;;8.85;3.83;;;;;;;-1.09;62.85;147059.03;5077131;28;20035;-68
2023/01/21 11:11:57;;;;;;;5.00;3.22;;;;;;;-1.64;62.10;146923.16;5076417;28;20031;-68
2023/01/21 11:14:26;;;;;;;7.00;3.80;;;;;;;-1.58;62.77;146938.44;5072855;28;20245;-68
2023/01/21 11:16:53;;;;;;;8.90;3.60;;;;;;;-1.60;61.76;146934.56;5071037;28;20369;-66
2023/01/21 11:19:29;;;;;;;8.75;4.10;;;;;;;-1.63;62.28;146926.97;5053787;28;20020;-66
2023/01/21 11:22:05;;;;;;;6.43;3.67;;;;;;;-1.32;61.63;147001.91;5054772;28;20205;-67
2023/01/21 11:24:42;;;;;;;8.00;4.32;;;;;;;-1.44;61.72;146972.66;5069982;28;20250;-67
2023/01/21 11:27:21;;;;;;;6.07;3.42;;;;;;;-1.59;61.58;146937.13;5070331;28;20035;-66
2023/01/21 11:29:48;;;;;;;8.32;4.07;;;;;;;-1.48;62.19;146962.50;5072277;28;20111;-67
2023/01/21 11:32:18;;;;;;;6.25;4.22;;;;;;;-1.59;62.94;146935.88;5077923;28;20040;-66
2023/01/21 11:34:56;;;;;;;9.00;3.75;;;;;;;-1.54;62.35;146947.28;5073660;28;20024;-66
2023/01/21 11:37:30;;;;;;;9.45;4.80;;;;;;;-1.73;63.06;146901.59;5051876;28;20039;-66